PAL535 RPLL-WIII
Flight info
| Callsign | PAL535 |
|---|---|
| Flight time | N/A |
| Altitude | 34000 |
| Route | BUCAL2R BUCAL M646 VJN P648 RAFIS DCT EGUKO |
| Aircraft | A21N/M-SDE2E3FGHIRWXY/LB1 |
Departure
| Time | 2026-05-06 15:35 |
|---|---|
| Airport | Ninoy Aquino International Airport (RPLL) |
Arrival
| Time | N/A |
|---|---|
| Airport | Soekarno-Hatta International Airport (WIII) |
| Time | Latitude | Longitude | Altitude | Speed | Heading |
|---|---|---|---|---|---|
| 2026-05-06 14:51 | 14.51064 | 121.01359 | 69 ft | 0 kts | 221° |
| 2026-05-06 15:15 | 14.51065 | 121.01359 | 69 ft | 0 kts | 220° |
| 2026-05-06 15:15 | 14.51076 | 121.01369 | 61 ft | 2 kts | 220° |
| 2026-05-06 15:15 | 14.51087 | 121.01379 | 66 ft | 2 kts | 216° |
| 2026-05-06 15:15 | 14.51095 | 121.01387 | 64 ft | 1 kts | 212° |
| 2026-05-06 15:16 | 14.51103 | 121.01390 | 62 ft | 1 kts | 240° |
| 2026-05-06 15:16 | 14.51107 | 121.01399 | 60 ft | 1 kts | 178° |
| 2026-05-06 15:16 | 14.51116 | 121.01396 | 62 ft | 1 kts | 261° |
| 2026-05-06 15:16 | 14.51116 | 121.01406 | 62 ft | 2 kts | 254° |
| 2026-05-06 15:17 | 14.51121 | 121.01421 | 64 ft | 2 kts | 227° |
| 2026-05-06 15:17 | 14.51125 | 121.01426 | 65 ft | 0 kts | 221° |
| 2026-05-06 15:18 | 14.51124 | 121.01425 | 64 ft | 1 kts | 220° |
| 2026-05-06 15:18 | 14.51115 | 121.01418 | 61 ft | 0 kts | 216° |
| 2026-05-06 15:18 | 14.51106 | 121.01419 | 62 ft | 0 kts | 183° |
| 2026-05-06 15:19 | 14.51103 | 121.01420 | 63 ft | 3 kts | 176° |
| 2026-05-06 15:19 | 14.51122 | 121.01417 | 63 ft | 3 kts | 145° |
| 2026-05-06 15:19 | 14.51127 | 121.01414 | 65 ft | 0 kts | 138° |
| 2026-05-06 15:22 | 14.51124 | 121.01416 | 64 ft | 3 kts | 138° |
| 2026-05-06 15:22 | 14.51070 | 121.01474 | 63 ft | 15 kts | 132° |
| 2026-05-06 15:22 | 14.50990 | 121.01565 | 68 ft | 19 kts | 132° |
| 2026-05-06 15:22 | 14.50929 | 121.01623 | 64 ft | 9 kts | 137° |
| 2026-05-06 15:23 | 14.50869 | 121.01659 | 60 ft | 10 kts | 182° |
| 2026-05-06 15:23 | 14.50836 | 121.01624 | 66 ft | 8 kts | 242° |
| 2026-05-06 15:23 | 14.50780 | 121.01522 | 64 ft | 23 kts | 240° |
| 2026-05-06 15:23 | 14.50679 | 121.01347 | 65 ft | 33 kts | 238° |
| 2026-05-06 15:24 | 14.50574 | 121.01154 | 65 ft | 22 kts | 241° |
| 2026-05-06 15:24 | 14.50480 | 121.00986 | 62 ft | 32 kts | 240° |
| 2026-05-06 15:24 | 14.50357 | 121.00759 | 60 ft | 41 kts | 239° |
| 2026-05-06 15:24 | 14.50223 | 121.00524 | 66 ft | 34 kts | 240° |
| 2026-05-06 15:25 | 14.50135 | 121.00363 | 64 ft | 25 kts | 240° |
| 2026-05-06 15:25 | 14.50045 | 121.00201 | 68 ft | 26 kts | 240° |
| 2026-05-06 15:25 | 14.49971 | 121.00068 | 67 ft | 3 kts | 239° |
| 2026-05-06 15:25 | 14.49971 | 121.00067 | 67 ft | 0 kts | 239° |
| 2026-05-06 15:28 | 14.49965 | 121.00057 | 60 ft | 6 kts | 239° |
| 2026-05-06 15:29 | 14.49923 | 120.99989 | 63 ft | 16 kts | 229° |
| 2026-05-06 15:29 | 14.49877 | 120.99971 | 62 ft | 1 kts | 179° |
| 2026-05-06 15:29 | 14.49876 | 120.99971 | 62 ft | 0 kts | 179° |
| 2026-05-06 15:33 | 14.49861 | 120.99974 | 67 ft | 6 kts | 166° |
| 2026-05-06 15:33 | 14.49813 | 121.00022 | 61 ft | 13 kts | 104° |
| 2026-05-06 15:34 | 14.49848 | 121.00123 | 64 ft | 17 kts | 60° |
| 2026-05-06 15:34 | 14.49861 | 121.00146 | 61 ft | 11 kts | 59° |
| 2026-05-06 15:34 | 14.50037 | 121.00463 | 64 ft | 90 kts | 59° |
| 2026-05-06 15:34 | 14.50464 | 121.01229 | 67 ft | 154 kts | 60° |
| 2026-05-06 15:35 | 14.51068 | 121.02335 | 214 ft | 193 kts | 63° |
| 2026-05-06 15:35 | 14.51751 | 121.03617 | 653 ft | 216 kts | 62° |
| 2026-05-06 15:35 | 14.52539 | 121.05032 | 1197 ft | 238 kts | 60° |
| 2026-05-06 15:35 | 14.53378 | 121.06542 | 2041 ft | 244 kts | 60° |
| 2026-05-06 15:36 | 14.54222 | 121.08056 | 3046 ft | 244 kts | 60° |
| 2026-05-06 15:36 | 14.55078 | 121.09589 | 3843 ft | 250 kts | 60° |
| 2026-05-06 15:36 | 14.55927 | 121.11168 | 4506 ft | 258 kts | 68° |
| 2026-05-06 15:36 | 14.56255 | 121.13011 | 5001 ft | 269 kts | 95° |
| 2026-05-06 15:37 | 14.55693 | 121.14848 | 5700 ft | 273 kts | 122° |
| 2026-05-06 15:37 | 14.54434 | 121.16332 | 6394 ft | 278 kts | 134° |
| 2026-05-06 15:37 | 14.53053 | 121.17736 | 7113 ft | 279 kts | 134° |
| 2026-05-06 15:37 | 14.51666 | 121.19149 | 7784 ft | 282 kts | 134° |
| 2026-05-06 15:38 | 14.50267 | 121.20589 | 8475 ft | 285 kts | 133° |
| 2026-05-06 15:38 | 14.48859 | 121.22045 | 9170 ft | 288 kts | 133° |
| 2026-05-06 15:38 | 14.47214 | 121.23250 | 9841 ft | 296 kts | 156° |
| 2026-05-06 15:38 | 14.45162 | 121.23655 | 10316 ft | 311 kts | 180° |
| 2026-05-06 15:39 | 14.43025 | 121.23123 | 10738 ft | 323 kts | 206° |
| 2026-05-06 15:39 | 14.41230 | 121.21719 | 11326 ft | 329 kts | 225° |
| 2026-05-06 15:39 | 14.39686 | 121.19891 | 11536 ft | 347 kts | 231° |
| 2026-05-06 15:39 | 14.38143 | 121.17894 | 11726 ft | 363 kts | 231° |
| 2026-05-06 15:40 | 14.36528 | 121.15868 | 12214 ft | 368 kts | 229° |
| 2026-05-06 15:40 | 14.34857 | 121.13864 | 12799 ft | 370 kts | 228° |
| 2026-05-06 15:40 | 14.33143 | 121.11870 | 13355 ft | 372 kts | 227° |
| 2026-05-06 15:40 | 14.31520 | 121.10012 | 13846 ft | 375 kts | 227° |
| 2026-05-06 15:41 | 14.30602 | 121.08966 | 14097 ft | 376 kts | 227° |
| 2026-05-06 15:41 | 14.28815 | 121.06977 | 14554 ft | 379 kts | 223° |
| 2026-05-06 15:41 | 14.26807 | 121.05212 | 15012 ft | 381 kts | 214° |
| 2026-05-06 15:41 | 14.24610 | 121.03674 | 15450 ft | 384 kts | 212° |
| 2026-05-06 15:42 | 14.22388 | 121.02125 | 15911 ft | 386 kts | 213° |
| 2026-05-06 15:42 | 14.20160 | 121.00561 | 16368 ft | 389 kts | 213° |
| 2026-05-06 15:42 | 14.17913 | 120.98979 | 16794 ft | 393 kts | 213° |
| 2026-05-06 15:42 | 14.15657 | 120.97388 | 17236 ft | 395 kts | 213° |
| 2026-05-06 15:43 | 14.13375 | 120.95780 | 17662 ft | 398 kts | 213° |
| 2026-05-06 15:43 | 14.11084 | 120.94166 | 18116 ft | 400 kts | 214° |
| 2026-05-06 15:43 | 14.08785 | 120.92547 | 18512 ft | 402 kts | 214° |
| 2026-05-06 15:43 | 14.06471 | 120.90917 | 18912 ft | 403 kts | 214° |
| 2026-05-06 15:44 | 14.04150 | 120.89282 | 19301 ft | 405 kts | 214° |
| 2026-05-06 15:44 | 14.01822 | 120.87643 | 19682 ft | 407 kts | 214° |
| 2026-05-06 15:44 | 13.99507 | 120.86014 | 20067 ft | 408 kts | 214° |
| 2026-05-06 15:44 | 13.97157 | 120.84360 | 20442 ft | 410 kts | 214° |
| 2026-05-06 15:45 | 13.94797 | 120.82700 | 20809 ft | 412 kts | 214° |
| 2026-05-06 15:45 | 13.92422 | 120.81030 | 21159 ft | 414 kts | 214° |
| 2026-05-06 15:45 | 13.90005 | 120.79330 | 21535 ft | 417 kts | 214° |
| 2026-05-06 15:45 | 13.87606 | 120.77644 | 21870 ft | 419 kts | 214° |
| 2026-05-06 15:46 | 13.85222 | 120.75967 | 22206 ft | 421 kts | 214° |
| 2026-05-06 15:46 | 13.82766 | 120.74238 | 22549 ft | 424 kts | 214° |
| 2026-05-06 15:46 | 13.80357 | 120.72543 | 22894 ft | 426 kts | 214° |
| 2026-05-06 15:46 | 13.77903 | 120.70816 | 23212 ft | 428 kts | 214° |
| 2026-05-06 15:47 | 13.75437 | 120.69082 | 23532 ft | 431 kts | 214° |
| 2026-05-06 15:47 | 13.72959 | 120.67340 | 23818 ft | 432 kts | 214° |
| 2026-05-06 15:47 | 13.70475 | 120.65594 | 24124 ft | 433 kts | 214° |
| 2026-05-06 15:47 | 13.67981 | 120.63842 | 24413 ft | 434 kts | 214° |
| 2026-05-06 15:48 | 13.65485 | 120.62089 | 24727 ft | 435 kts | 214° |
| 2026-05-06 15:48 | 13.62982 | 120.60334 | 24997 ft | 437 kts | 213° |
| 2026-05-06 15:48 | 13.60406 | 120.58669 | 25295 ft | 437 kts | 210° |
| 2026-05-06 15:48 | 13.57735 | 120.57166 | 25580 ft | 438 kts | 206° |
| 2026-05-06 15:49 | 13.54978 | 120.55813 | 25850 ft | 439 kts | 205° |
| 2026-05-06 15:49 | 13.52202 | 120.54486 | 26118 ft | 440 kts | 205° |
| 2026-05-06 15:49 | 13.49426 | 120.53149 | 26371 ft | 441 kts | 205° |
| 2026-05-06 15:49 | 13.46645 | 120.51808 | 26627 ft | 443 kts | 205° |
| 2026-05-06 15:50 | 13.43847 | 120.50459 | 26876 ft | 444 kts | 205° |
| 2026-05-06 15:50 | 13.41050 | 120.49112 | 27122 ft | 445 kts | 205° |
| 2026-05-06 15:50 | 13.38239 | 120.47760 | 27347 ft | 447 kts | 205° |
| 2026-05-06 15:50 | 13.35427 | 120.46408 | 27586 ft | 448 kts | 205° |
| 2026-05-06 15:51 | 13.32604 | 120.45051 | 27820 ft | 449 kts | 205° |
| 2026-05-06 15:51 | 13.29770 | 120.43689 | 28034 ft | 450 kts | 205° |
| 2026-05-06 15:51 | 13.26931 | 120.42325 | 28244 ft | 451 kts | 205° |
| 2026-05-06 15:51 | 13.24084 | 120.40957 | 28439 ft | 453 kts | 205° |
| 2026-05-06 15:52 | 13.15406 | 120.36791 | 29012 ft | 457 kts | 205° |
| 2026-05-06 15:52 | 13.12518 | 120.35406 | 29210 ft | 458 kts | 205° |
| 2026-05-06 15:53 | 13.09629 | 120.34020 | 29403 ft | 459 kts | 205° |
| 2026-05-06 15:53 | 13.06732 | 120.32630 | 29590 ft | 460 kts | 205° |
| 2026-05-06 15:53 | 13.03830 | 120.31239 | 29760 ft | 462 kts | 205° |
| 2026-05-06 15:53 | 13.00912 | 120.29840 | 29942 ft | 463 kts | 205° |
| 2026-05-06 15:54 | 12.97989 | 120.28440 | 30107 ft | 464 kts | 206° |
| 2026-05-06 15:54 | 12.95060 | 120.27037 | 30267 ft | 465 kts | 206° |
| 2026-05-06 15:54 | 12.92126 | 120.25631 | 30427 ft | 467 kts | 206° |
| 2026-05-06 15:54 | 12.89180 | 120.24221 | 30593 ft | 468 kts | 206° |
| 2026-05-06 15:55 | 12.86227 | 120.22807 | 30751 ft | 469 kts | 206° |
| 2026-05-06 15:55 | 12.83266 | 120.21390 | 30923 ft | 470 kts | 206° |
| 2026-05-06 15:55 | 12.80306 | 120.19974 | 31139 ft | 470 kts | 206° |
| 2026-05-06 15:55 | 12.77342 | 120.18557 | 31366 ft | 469 kts | 206° |
| 2026-05-06 15:56 | 12.74387 | 120.17143 | 31590 ft | 468 kts | 206° |
| 2026-05-06 15:56 | 12.71437 | 120.15733 | 31816 ft | 468 kts | 206° |
| 2026-05-06 15:56 | 12.68491 | 120.14325 | 32029 ft | 467 kts | 206° |
| 2026-05-06 15:56 | 12.65543 | 120.12917 | 32246 ft | 467 kts | 206° |
| 2026-05-06 15:57 | 12.62604 | 120.11512 | 32453 ft | 466 kts | 206° |
| 2026-05-06 15:57 | 12.60662 | 120.10585 | 32592 ft | 466 kts | 206° |
| 2026-05-06 15:57 | 12.56739 | 120.08712 | 32852 ft | 465 kts | 206° |
| 2026-05-06 15:57 | 12.53811 | 120.07314 | 33047 ft | 464 kts | 206° |
| 2026-05-06 15:58 | 12.50883 | 120.05917 | 33224 ft | 464 kts | 206° |
| 2026-05-06 15:58 | 12.48949 | 120.04994 | 33356 ft | 463 kts | 206° |
| 2026-05-06 15:58 | 12.46025 | 120.03599 | 33541 ft | 463 kts | 206° |
| 2026-05-06 15:58 | 12.43109 | 120.02208 | 33716 ft | 462 kts | 206° |
| 2026-05-06 15:59 | 12.40193 | 120.00818 | 33887 ft | 462 kts | 206° |
| 2026-05-06 15:59 | 12.37285 | 119.99431 | 33893 ft | 461 kts | 206° |
| 2026-05-06 15:59 | 12.30528 | 119.96212 | 33891 ft | 461 kts | 206° |
| 2026-05-06 16:00 | 12.25660 | 119.93893 | 33889 ft | 461 kts | 206° |
| 2026-05-06 16:00 | 12.19846 | 119.91124 | 33892 ft | 461 kts | 206° |
| 2026-05-06 16:01 | 12.14032 | 119.88357 | 33889 ft | 461 kts | 206° |
| 2026-05-06 16:01 | 12.08211 | 119.85589 | 33890 ft | 461 kts | 206° |
| 2026-05-06 16:02 | 12.02395 | 119.82824 | 33892 ft | 461 kts | 206° |
| 2026-05-06 16:02 | 11.96579 | 119.80061 | 33889 ft | 461 kts | 206° |
| 2026-05-06 16:03 | 11.90805 | 119.77319 | 33888 ft | 461 kts | 206° |
| 2026-05-06 16:03 | 11.84981 | 119.74555 | 33888 ft | 461 kts | 206° |
| 2026-05-06 16:04 | 11.79167 | 119.71796 | 33891 ft | 461 kts | 206° |
| 2026-05-06 16:04 | 11.73346 | 119.69035 | 33888 ft | 461 kts | 206° |
| 2026-05-06 16:05 | 11.67517 | 119.66280 | 33888 ft | 462 kts | 206° |
| 2026-05-06 16:05 | 11.61669 | 119.63571 | 33886 ft | 462 kts | 205° |
| 2026-05-06 16:06 | 11.55816 | 119.60861 | 33889 ft | 462 kts | 205° |
| 2026-05-06 16:06 | 11.49967 | 119.58149 | 33892 ft | 462 kts | 205° |
| 2026-05-06 16:07 | 11.44113 | 119.55434 | 33894 ft | 462 kts | 205° |
| 2026-05-06 16:07 | 11.38259 | 119.52720 | 33894 ft | 462 kts | 205° |
| 2026-05-06 16:08 | 11.32400 | 119.50006 | 33890 ft | 462 kts | 205° |
| 2026-05-06 16:08 | 11.26543 | 119.47294 | 33894 ft | 463 kts | 205° |
| 2026-05-06 16:09 | 11.23614 | 119.45937 | 33892 ft | 463 kts | 205° |
| 2026-05-06 16:09 | 11.14417 | 119.41681 | 33891 ft | 463 kts | 205° |
| 2026-05-06 16:10 | 11.08545 | 119.38966 | 33893 ft | 463 kts | 205° |
| 2026-05-06 16:10 | 11.02670 | 119.36249 | 33897 ft | 463 kts | 205° |
| 2026-05-06 16:11 | 10.96800 | 119.33537 | 33890 ft | 464 kts | 205° |
| 2026-05-06 16:11 | 10.90922 | 119.30822 | 33892 ft | 464 kts | 205° |
| 2026-05-06 16:12 | 10.87982 | 119.29465 | 33895 ft | 464 kts | 205° |